createdAt,value
2024-03-24T00:02:33.977Z,9.10
2024-03-24T00:07:42.820Z,9.43
2024-03-24T00:12:55.602Z,9.73
2024-03-24T00:18:01.539Z,10.00
2024-03-24T00:23:16.819Z,9.35
2024-03-24T00:28:28.389Z,9.82
2024-03-24T00:33:38.399Z,10.05
2024-03-24T00:38:43.485Z,10.48
2024-03-24T00:43:55.837Z,9.77
2024-03-24T00:49:10.736Z,10.07
2024-03-24T00:54:23.170Z,9.15
2024-03-24T00:59:32.257Z,9.07
2024-03-24T01:04:42.088Z,9.48
2024-03-24T01:09:55.693Z,9.52
2024-03-24T01:15:04.120Z,10.00
2024-03-24T01:20:16.123Z,9.13
2024-03-24T01:25:28.323Z,10.07
2024-03-24T01:30:41.220Z,9.07
2024-03-24T01:35:50.327Z,9.93
2024-03-24T01:40:59.814Z,9.77
2024-03-24T01:46:07.902Z,9.30
2024-03-24T01:51:14.261Z,10.00
2024-03-24T01:56:21.975Z,9.35
2024-03-24T02:01:29.416Z,9.15
2024-03-24T02:06:34.899Z,9.70
2024-03-24T02:11:40.434Z,9.43
2024-03-24T02:16:53.636Z,9.73
2024-03-24T02:22:04.974Z,9.75
2024-03-24T02:32:33.493Z,8.80
2024-03-24T02:37:43.075Z,9.57
2024-03-24T02:42:52.123Z,9.32
2024-03-24T02:47:58.047Z,9.55
2024-03-24T02:53:07.947Z,9.20
2024-03-24T02:58:23.717Z,9.88
2024-03-24T03:03:28.797Z,8.43
2024-03-24T03:08:33.791Z,9.35
2024-03-24T03:13:50.234Z,9.65
2024-03-24T03:19:01.687Z,10.25
2024-03-24T03:24:06.994Z,9.38
2024-03-24T03:29:20.507Z,10.18
2024-03-24T03:34:34.138Z,11.00
2024-03-24T03:39:38.703Z,11.80
2024-03-24T03:44:50.572Z,11.90
2024-03-24T03:50:03.920Z,12.82
2024-03-24T03:55:13.126Z,16.15
2024-03-24T04:00:22.554Z,17.95
2024-03-24T04:05:33.439Z,18.67
2024-03-24T04:10:40.778Z,18.10
2024-03-24T04:21:05.570Z,12.95
2024-03-24T04:26:12.601Z,12.48
2024-03-24T04:31:24.785Z,11.07
2024-03-24T04:36:31.960Z,10.32
2024-03-24T04:41:45.172Z,9.60
2024-03-24T04:46:53.191Z,9.57
2024-03-24T04:52:08.107Z,9.25
2024-03-24T04:57:14.713Z,9.63
2024-03-24T05:02:23.074Z,9.93
2024-03-24T05:07:39.883Z,8.95
2024-03-24T05:12:54.465Z,9.13
2024-03-24T05:23:19.346Z,9.38
2024-03-24T05:28:35.459Z,8.38
2024-03-24T05:33:53.918Z,8.63
2024-03-24T05:39:08.585Z,8.77
2024-03-24T05:44:14.577Z,8.55
2024-03-24T05:49:21.375Z,8.65
2024-03-24T05:54:32.737Z,8.60
2024-03-24T05:59:40.364Z,8.20
2024-03-24T06:04:51.868Z,8.55
2024-03-24T06:10:02.948Z,7.80
2024-03-24T06:15:09.950Z,8.43
2024-03-24T06:20:22.868Z,7.45
2024-03-24T06:25:42.372Z,8.13
2024-03-24T06:30:53.966Z,8.70
2024-03-24T06:36:05.150Z,8.70
2024-03-24T06:41:16.633Z,9.10
2024-03-24T06:46:24.183Z,9.55
2024-03-24T06:51:35.148Z,8.18
2024-03-24T06:56:40.278Z,8.77
2024-03-24T07:01:46.107Z,8.57
2024-03-24T07:12:10.182Z,8.10
2024-03-24T07:17:26.020Z,8.50
2024-03-24T07:22:39.731Z,9.60
2024-03-24T07:27:48.857Z,10.07
2024-03-24T07:32:53.788Z,9.77
2024-03-24T07:38:02.503Z,10.45
2024-03-24T07:43:12.430Z,10.13
2024-03-24T07:48:18.515Z,9.32
2024-03-24T07:53:25.827Z,8.48
2024-03-24T07:58:30.863Z,8.32
2024-03-24T08:03:46.180Z,9.05
2024-03-24T08:08:58.189Z,7.68
2024-03-24T08:14:03.353Z,8.20
2024-03-24T08:19:10.818Z,8.30
2024-03-24T08:24:18.963Z,8.60
2024-03-24T08:29:29.475Z,8.95
2024-03-24T08:34:41.808Z,9.65
2024-03-24T08:39:52.119Z,9.32
2024-03-24T08:44:56.653Z,9.93
2024-03-24T08:50:03.244Z,10.35
2024-03-24T08:55:14.743Z,10.55
2024-03-24T09:00:21.608Z,10.60
2024-03-24T09:05:27.790Z,10.30
2024-03-24T09:10:35.309Z,11.45
2024-03-24T09:15:45.153Z,9.73
2024-03-24T09:20:50.028Z,12.55
2024-03-24T09:25:58.808Z,12.52
2024-03-24T09:31:04.603Z,11.88
2024-03-24T09:36:13.282Z,12.05
2024-03-24T09:41:42.721Z,13.20
2024-03-24T09:47:00.448Z,12.70
2024-03-24T09:52:08.272Z,12.18
2024-03-24T09:57:21.327Z,11.80
2024-03-24T10:02:27.622Z,10.45
2024-03-24T10:07:38.529Z,11.25
2024-03-24T10:12:55.772Z,10.40
2024-03-24T10:18:07.792Z,11.20
2024-03-24T10:23:18.029Z,12.20
2024-03-24T10:28:29.755Z,11.32
2024-03-24T10:33:46.772Z,12.45
2024-03-24T10:38:52.870Z,11.82
2024-03-24T10:44:11.137Z,12.90
2024-03-24T10:49:22.019Z,10.88
2024-03-24T10:54:30.272Z,11.32
2024-03-24T10:59:45.924Z,11.48
2024-03-24T11:04:51.963Z,10.25
2024-03-24T11:09:59.642Z,9.27
2024-03-24T11:15:07.800Z,10.43
2024-03-24T11:20:27.148Z,9.13
2024-03-24T11:31:03.339Z,10.60
2024-03-24T11:36:23.520Z,10.35
2024-03-24T11:41:28.455Z,11.30
2024-03-24T11:46:42.825Z,11.30
2024-03-24T11:51:52.605Z,11.77
2024-03-24T11:57:01.186Z,12.30
2024-03-24T12:02:08.274Z,11.98
2024-03-24T12:07:14.895Z,12.27
2024-03-24T12:12:20.229Z,12.40
2024-03-24T12:17:33.402Z,11.73
2024-03-24T12:22:41.831Z,11.75
2024-03-24T12:27:51.940Z,12.43
2024-03-24T12:32:59.656Z,12.00
2024-03-24T12:47:41.323Z,9.95
2024-03-24T12:52:47.080Z,10.27
2024-03-24T12:58:03.640Z,10.73
2024-03-24T13:03:15.042Z,10.35
2024-03-24T13:08:23.115Z,10.35
2024-03-24T13:13:38.951Z,10.00
2024-03-24T13:18:51.134Z,9.25
2024-03-24T13:23:59.790Z,9.63
2024-03-24T13:29:05.511Z,8.38
2024-03-24T13:34:22.274Z,8.95
2024-03-24T13:39:46.427Z,8.77
2024-03-24T13:45:04.910Z,9.23
2024-03-24T13:50:14.259Z,8.57
2024-03-24T13:55:20.708Z,8.80
2024-03-24T14:00:31.296Z,8.80
2024-03-24T14:05:39.450Z,8.38
2024-03-24T14:10:59.901Z,7.90
2024-03-24T14:21:40.551Z,8.30
2024-03-24T14:26:50.860Z,8.65
2024-03-24T14:31:57.609Z,8.07
2024-03-24T14:37:22.895Z,7.72
2024-03-24T14:42:39.190Z,8.00
2024-03-24T14:53:19.306Z,7.78
2024-03-24T14:58:25.914Z,7.82
2024-03-24T15:03:34.042Z,8.02
2024-03-24T15:08:51.129Z,7.53
2024-03-24T15:14:00.755Z,7.60
2024-03-24T15:19:07.778Z,7.70
2024-03-24T15:24:20.555Z,7.50
2024-03-24T15:29:25.692Z,8.32
2024-03-24T15:34:37.324Z,7.80
2024-03-24T15:39:47.894Z,8.10
2024-03-24T15:44:52.770Z,8.23
2024-03-24T15:49:58.020Z,7.78
2024-03-24T15:55:05.491Z,8.25
2024-03-24T16:00:20.538Z,8.60
2024-03-24T16:05:27.461Z,8.55
2024-03-24T16:10:59.858Z,8.48
2024-03-24T16:16:17.299Z,8.43
2024-03-24T16:21:44.051Z,8.73
2024-03-24T16:26:50.748Z,9.60
2024-03-24T16:32:03.094Z,9.65
2024-03-24T16:37:12.064Z,9.95
2024-03-24T16:42:24.754Z,8.88
2024-03-24T16:52:53.006Z,10.15
2024-03-24T16:58:05.203Z,8.80
2024-03-24T17:03:16.363Z,10.10
2024-03-24T17:08:24.248Z,10.07
2024-03-24T17:13:34.378Z,9.80
2024-03-24T17:18:39.528Z,9.32
2024-03-24T17:23:54.831Z,10.60
2024-03-24T17:29:07.520Z,9.50
2024-03-24T17:34:12.147Z,8.75
2024-03-24T17:39:32.587Z,10.18
2024-03-24T17:44:40.084Z,10.48
2024-03-24T17:49:47.931Z,10.70
2024-03-24T17:54:53.031Z,10.10
2024-03-24T18:00:07.662Z,11.00
2024-03-24T18:05:18.182Z,10.93
2024-03-24T18:10:29.913Z,11.20
2024-03-24T18:15:39.522Z,11.68
2024-03-24T18:20:57.383Z,11.00
2024-03-24T18:26:04.387Z,12.77
2024-03-24T18:31:19.000Z,12.32
2024-03-24T18:36:28.883Z,12.10
2024-03-24T18:47:00.409Z,12.27
2024-03-24T18:52:08.098Z,13.02
2024-03-24T18:57:18.748Z,13.65
2024-03-24T19:02:32.959Z,14.23
2024-03-24T19:07:37.842Z,14.55
2024-03-24T19:12:43.805Z,15.20
2024-03-24T19:23:18.080Z,16.02
2024-03-24T19:28:24.721Z,14.13
2024-03-24T19:33:33.141Z,14.32
2024-03-24T19:38:43.486Z,13.55
2024-03-24T19:43:54.278Z,12.65
2024-03-24T19:49:01.319Z,13.82
2024-03-24T19:54:07.223Z,13.40
2024-03-24T19:59:20.968Z,13.18
2024-03-24T20:04:33.273Z,14.30
2024-03-24T20:09:42.965Z,14.75
2024-03-24T20:14:47.681Z,15.20
2024-03-24T20:19:54.718Z,14.63
2024-03-24T20:25:05.738Z,15.23
2024-03-24T20:30:11.987Z,15.60
2024-03-24T20:35:25.026Z,15.25
2024-03-24T20:40:30.038Z,15.60
2024-03-24T20:45:43.650Z,16.15
2024-03-24T20:50:51.610Z,16.85
2024-03-24T21:01:17.429Z,18.05
2024-03-24T21:06:24.331Z,16.98
2024-03-24T21:11:36.248Z,17.58
2024-03-24T21:16:47.821Z,18.20
2024-03-24T21:27:12.397Z,19.65
2024-03-24T21:32:17.755Z,20.88
2024-03-24T21:37:46.436Z,22.60
2024-03-24T21:42:56.368Z,22.77
2024-03-24T21:48:02.623Z,22.08
2024-03-24T21:53:10.877Z,20.80
2024-03-24T21:58:16.244Z,21.13
2024-03-24T22:03:25.831Z,20.88
2024-03-24T22:08:39.670Z,19.67
2024-03-24T22:18:59.735Z,18.52
2024-03-24T22:24:09.102Z,18.52
2024-03-24T22:29:19.361Z,19.40
2024-03-24T22:34:25.474Z,21.30
2024-03-24T22:44:50.286Z,23.08
2024-03-24T22:49:55.759Z,22.80
2024-03-24T22:55:04.768Z,22.48
2024-03-24T23:00:25.305Z,20.30
2024-03-24T23:05:37.618Z,22.52
2024-03-24T23:10:44.644Z,22.77
2024-03-24T23:15:52.710Z,23.15
2024-03-24T23:20:58.851Z,22.15
2024-03-24T23:26:06.854Z,22.08
2024-03-24T23:31:12.796Z,18.70
2024-03-24T23:36:17.930Z,18.20
2024-03-24T23:41:27.709Z,17.73
2024-03-24T23:46:40.858Z,10.95
2024-03-24T23:51:51.400Z,8.70
2024-03-24T23:57:07.349Z,6.35
